sensor_id;sensor_type;location;lat;lon;timestamp;temperature;humidity
19403;DHT22;9837;48.888;8.998;2023-04-10T00:00:28;11.50;53.00
19403;DHT22;9837;48.888;8.998;2023-04-10T00:05:21;11.60;53.00
19403;DHT22;9837;48.888;8.998;2023-04-10T00:07:47;11.50;52.80
19403;DHT22;9837;48.888;8.998;2023-04-10T00:10:12;11.60;52.80
19403;DHT22;9837;48.888;8.998;2023-04-10T00:12:38;11.70;52.60
19403;DHT22;9837;48.888;8.998;2023-04-10T00:15:04;11.70;52.50
19403;DHT22;9837;48.888;8.998;2023-04-10T00:17:29;11.70;53.00
19403;DHT22;9837;48.888;8.998;2023-04-10T00:22:23;11.60;52.80
19403;DHT22;9837;48.888;8.998;2023-04-10T00:24:49;11.60;52.80
19403;DHT22;9837;48.888;8.998;2023-04-10T00:27:14;11.60;53.40
19403;DHT22;9837;48.888;8.998;2023-04-10T00:29:40;11.70;52.70
19403;DHT22;9837;48.888;8.998;2023-04-10T00:32:05;11.70;53.10
19403;DHT22;9837;48.888;8.998;2023-04-10T00:34:31;12.40;53.10
19403;DHT22;9837;48.888;8.998;2023-04-10T00:36:58;11.80;52.20
19403;DHT22;9837;48.888;8.998;2023-04-10T00:41:49;11.70;52.30
19403;DHT22;9837;48.888;8.998;2023-04-10T00:44:15;11.50;52.70
19403;DHT22;9837;48.888;8.998;2023-04-10T00:46:40;11.50;52.80
19403;DHT22;9837;48.888;8.998;2023-04-10T00:49:06;11.40;53.30
19403;DHT22;9837;48.888;8.998;2023-04-10T00:51:33;11.40;53.60
19403;DHT22;9837;48.888;8.998;2023-04-10T00:54:01;11.70;52.40
19403;DHT22;9837;48.888;8.998;2023-04-10T00:56:27;11.70;52.90
19403;DHT22;9837;48.888;8.998;2023-04-10T01:01:20;11.60;52.50
19403;DHT22;9837;48.888;8.998;2023-04-10T01:03:45;11.60;53.00
19403;DHT22;9837;48.888;8.998;2023-04-10T01:06:29;11.50;53.30
19403;DHT22;9837;48.888;8.998;2023-04-10T01:08:59;11.50;53.30
19403;DHT22;9837;48.888;8.998;2023-04-10T01:11:43;11.50;53.30
19403;DHT22;9837;48.888;8.998;2023-04-10T01:14:32;11.50;53.30
19403;DHT22;9837;48.888;8.998;2023-04-10T01:17:08;11.30;53.50
19403;DHT22;9837;48.888;8.998;2023-04-10T01:19:56;11.20;53.40
19403;DHT22;9837;48.888;8.998;2023-04-10T01:22:34;11.20;53.90
19403;DHT22;9837;48.888;8.998;2023-04-10T01:30:36;10.80;54.90
19403;DHT22;9837;48.888;8.998;2023-04-10T01:33:02;10.70;54.90
19403;DHT22;9837;48.888;8.998;2023-04-10T01:35:29;10.80;54.10
19403;DHT22;9837;48.888;8.998;2023-04-10T01:37:56;10.70;54.30
19403;DHT22;9837;48.888;8.998;2023-04-10T01:40:24;10.70;54.80
19403;DHT22;9837;48.888;8.998;2023-04-10T01:42:54;10.70;54.90
19403;DHT22;9837;48.888;8.998;2023-04-10T01:45:24;10.80;54.60
19403;DHT22;9837;48.888;8.998;2023-04-10T01:47:51;11.00;54.30
19403;DHT22;9837;48.888;8.998;2023-04-10T01:50:17;10.80;53.90
19403;DHT22;9837;48.888;8.998;2023-04-10T01:52:44;10.80;53.90
19403;DHT22;9837;48.888;8.998;2023-04-10T01:55:11;10.90;54.50
19403;DHT22;9837;48.888;8.998;2023-04-10T01:57:36;11.00;53.50
19403;DHT22;9837;48.888;8.998;2023-04-10T02:00:03;11.00;54.00
19403;DHT22;9837;48.888;8.998;2023-04-10T02:02:32;10.90;53.60
19403;DHT22;9837;48.888;8.998;2023-04-10T02:04:58;10.90;54.20
19403;DHT22;9837;48.888;8.998;2023-04-10T02:07:35;11.00;54.10
19403;DHT22;9837;48.888;8.998;2023-04-10T02:10:12;11.30;52.90
19403;DHT22;9837;48.888;8.998;2023-04-10T02:12:50;11.40;52.60
19403;DHT22;9837;48.888;8.998;2023-04-10T02:15:20;11.40;53.10
19403;DHT22;9837;48.888;8.998;2023-04-10T02:17:47;11.20;52.90
19403;DHT22;9837;48.888;8.998;2023-04-10T02:20:15;11.20;53.50
19403;DHT22;9837;48.888;8.998;2023-04-10T02:22:43;11.10;53.40
19403;DHT22;9837;48.888;8.998;2023-04-10T02:25:09;11.00;53.60
19403;DHT22;9837;48.888;8.998;2023-04-10T02:27:36;10.90;53.70
19403;DHT22;9837;48.888;8.998;2023-04-10T02:30:03;10.90;53.90
19403;DHT22;9837;48.888;8.998;2023-04-10T02:34:55;10.70;54.00
19403;DHT22;9837;48.888;8.998;2023-04-10T02:37:21;10.70;54.70
19403;DHT22;9837;48.888;8.998;2023-04-10T02:39:47;10.80;54.60
19403;DHT22;9837;48.888;8.998;2023-04-10T02:44:39;10.90;53.60
19403;DHT22;9837;48.888;8.998;2023-04-10T02:47:04;10.90;54.20
19403;DHT22;9837;48.888;8.998;2023-04-10T02:49:31;10.80;53.70
19403;DHT22;9837;48.888;8.998;2023-04-10T02:51:57;10.80;54.30
19403;DHT22;9837;48.888;8.998;2023-04-10T02:54:23;10.80;54.40
19403;DHT22;9837;48.888;8.998;2023-04-10T02:56:48;10.70;54.60
19403;DHT22;9837;48.888;8.998;2023-04-10T02:59:14;10.60;54.80
19403;DHT22;9837;48.888;8.998;2023-04-10T03:01:40;10.30;54.80
19403;DHT22;9837;48.888;8.998;2023-04-10T03:04:06;10.20;55.60
19403;DHT22;9837;48.888;8.998;2023-04-10T03:06:31;10.10;55.90
19403;DHT22;9837;48.888;8.998;2023-04-10T03:08:57;10.00;55.70
19403;DHT22;9837;48.888;8.998;2023-04-10T03:13:49;9.90;55.90
19403;DHT22;9837;48.888;8.998;2023-04-10T03:16:14;9.70;56.30
19403;DHT22;9837;48.888;8.998;2023-04-10T03:18:41;9.70;57.10
19403;DHT22;9837;48.888;8.998;2023-04-10T03:21:07;9.90;56.90
19403;DHT22;9837;48.888;8.998;2023-04-10T03:23:32;9.90;56.10
19403;DHT22;9837;48.888;8.998;2023-04-10T03:25:58;9.90;56.60
19403;DHT22;9837;48.888;8.998;2023-04-10T03:28:23;9.90;56.10
19403;DHT22;9837;48.888;8.998;2023-04-10T03:30:49;9.90;56.60
19403;DHT22;9837;48.888;8.998;2023-04-10T03:33:15;10.00;56.30
19403;DHT22;9837;48.888;8.998;2023-04-10T03:35:41;10.20;56.20
19403;DHT22;9837;48.888;8.998;2023-04-10T03:38:07;10.30;55.70
19403;DHT22;9837;48.888;8.998;2023-04-10T03:40:33;10.50;55.40
19403;DHT22;9837;48.888;8.998;2023-04-10T03:42:59;10.70;54.30
19403;DHT22;9837;48.888;8.998;2023-04-10T03:45:24;10.70;54.90
19403;DHT22;9837;48.888;8.998;2023-04-10T03:47:51;10.70;54.60
19403;DHT22;9837;48.888;8.998;2023-04-10T03:50:17;10.70;54.50
19403;DHT22;9837;48.888;8.998;2023-04-10T03:52:43;10.60;54.20
19403;DHT22;9837;48.888;8.998;2023-04-10T03:55:08;10.60;54.10
19403;DHT22;9837;48.888;8.998;2023-04-10T03:57:34;10.50;54.00
19403;DHT22;9837;48.888;8.998;2023-04-10T03:59:59;10.50;54.00
19403;DHT22;9837;48.888;8.998;2023-04-10T04:02:25;10.40;54.70
19403;DHT22;9837;48.888;8.998;2023-04-10T04:04:51;10.40;54.30
19403;DHT22;9837;48.888;8.998;2023-04-10T04:07:16;10.40;54.90
19403;DHT22;9837;48.888;8.998;2023-04-10T04:09:42;10.20;54.80
19403;DHT22;9837;48.888;8.998;2023-04-10T04:12:07;10.30;54.70
19403;DHT22;9837;48.888;8.998;2023-04-10T04:14:33;10.30;55.20
19403;DHT22;9837;48.888;8.998;2023-04-10T04:16:58;10.20;55.20
19403;DHT22;9837;48.888;8.998;2023-04-10T04:19:24;10.10;54.70
19403;DHT22;9837;48.888;8.998;2023-04-10T04:21:50;10.10;54.80
19403;DHT22;9837;48.888;8.998;2023-04-10T04:24:15;10.10;55.60
19403;DHT22;9837;48.888;8.998;2023-04-10T04:26:41;9.90;55.40
19403;DHT22;9837;48.888;8.998;2023-04-10T04:29:06;9.90;56.00
19403;DHT22;9837;48.888;8.998;2023-04-10T04:31:32;9.90;55.60
19403;DHT22;9837;48.888;8.998;2023-04-10T04:33:58;10.00;55.50
19403;DHT22;9837;48.888;8.998;2023-04-10T04:36:24;10.00;55.50
19403;DHT22;9837;48.888;8.998;2023-04-10T04:38:50;10.00;56.00
19403;DHT22;9837;48.888;8.998;2023-04-10T04:41:15;9.80;55.60
19403;DHT22;9837;48.888;8.998;2023-04-10T04:46:06;9.90;55.70
19403;DHT22;9837;48.888;8.998;2023-04-10T04:48:34;9.80;56.40
19403;DHT22;9837;48.888;8.998;2023-04-10T04:55:53;9.70;56.00
19403;DHT22;9837;48.888;8.998;2023-04-10T04:58:18;9.70;56.70
19403;DHT22;9837;48.888;8.998;2023-04-10T05:00:45;9.80;56.70
19403;DHT22;9837;48.888;8.998;2023-04-10T05:03:10;9.80;56.10
19403;DHT22;9837;48.888;8.998;2023-04-10T05:05:36;10.00;56.10
19403;DHT22;9837;48.888;8.998;2023-04-10T05:08:02;10.00;55.90
19403;DHT22;9837;48.888;8.998;2023-04-10T05:10:27;10.10;55.70
19403;DHT22;9837;48.888;8.998;2023-04-10T05:12:53;10.20;55.30
19403;DHT22;9837;48.888;8.998;2023-04-10T05:15:18;10.20;55.50
19403;DHT22;9837;48.888;8.998;2023-04-10T05:17:44;11.30;53.20
19403;DHT22;9837;48.888;8.998;2023-04-10T05:20:09;11.30;53.60
19403;DHT22;9837;48.888;8.998;2023-04-10T05:22:35;12.70;49.40
19403;DHT22;9837;48.888;8.998;2023-04-10T05:25:01;14.60;50.90
19403;DHT22;9837;48.888;8.998;2023-04-10T05:27:26;12.90;49.20
19403;DHT22;9837;48.888;8.998;2023-04-10T05:29:52;13.30;48.30
19403;DHT22;9837;48.888;8.998;2023-04-10T05:32:18;13.30;48.80
19403;DHT22;9837;48.888;8.998;2023-04-10T05:34:43;13.80;47.60
19403;DHT22;9837;48.888;8.998;2023-04-10T05:37:08;14.30;46.80
19403;DHT22;9837;48.888;8.998;2023-04-10T05:39:37;14.30;46.20
19403;DHT22;9837;48.888;8.998;2023-04-10T05:42:02;14.30;46.00
19403;DHT22;9837;48.888;8.998;2023-04-10T05:44:30;14.10;46.20
19403;DHT22;9837;48.888;8.998;2023-04-10T05:46:55;14.40;45.20
19403;DHT22;9837;48.888;8.998;2023-04-10T05:49:21;14.40;45.80
19403;DHT22;9837;48.888;8.998;2023-04-10T05:51:46;14.60;45.40
19403;DHT22;9837;48.888;8.998;2023-04-10T05:54:15;14.80;44.30
19403;DHT22;9837;48.888;8.998;2023-04-10T05:56:41;14.80;44.90
19403;DHT22;9837;48.888;8.998;2023-04-10T05:59:06;15.00;45.30
19403;DHT22;9837;48.888;8.998;2023-04-10T06:01:32;15.50;43.00
19403;DHT22;9837;48.888;8.998;2023-04-10T06:03:57;15.90;42.40
19403;DHT22;9837;48.888;8.998;2023-04-10T06:06:24;15.90;42.90
19403;DHT22;9837;48.888;8.998;2023-04-10T06:11:16;16.20;41.20
19403;DHT22;9837;48.888;8.998;2023-04-10T06:13:42;16.10;41.90
19403;DHT22;9837;48.888;8.998;2023-04-10T06:16:08;15.90;41.50
19403;DHT22;9837;48.888;8.998;2023-04-10T06:18:33;15.80;41.90
19403;DHT22;9837;48.888;8.998;2023-04-10T06:20:59;15.60;42.30
19403;DHT22;9837;48.888;8.998;2023-04-10T06:23:27;15.60;43.00
19403;DHT22;9837;48.888;8.998;2023-04-10T06:25:53;16.10;41.90
19403;DHT22;9837;48.888;8.998;2023-04-10T06:28:19;16.10;42.40
19403;DHT22;9837;48.888;8.998;2023-04-10T06:30:44;16.60;41.80
19403;DHT22;9837;48.888;8.998;2023-04-10T06:33:10;17.30;40.90
19403;DHT22;9837;48.888;8.998;2023-04-10T06:35:36;19.00;37.60
19403;DHT22;9837;48.888;8.998;2023-04-10T06:38:02;18.90;38.10
19403;DHT22;9837;48.888;8.998;2023-04-10T06:40:27;19.70;36.90
19403;DHT22;9837;48.888;8.998;2023-04-10T06:42:54;20.90;34.20
19403;DHT22;9837;48.888;8.998;2023-04-10T06:45:19;20.90;34.80
19403;DHT22;9837;48.888;8.998;2023-04-10T06:47:45;21.20;33.80
19403;DHT22;9837;48.888;8.998;2023-04-10T06:50:11;21.20;34.20
19403;DHT22;9837;48.888;8.998;2023-04-10T06:52:36;21.60;33.10
19403;DHT22;9837;48.888;8.998;2023-04-10T06:55:02;21.60;33.60
19403;DHT22;9837;48.888;8.998;2023-04-10T06:57:28;21.50;33.60
19403;DHT22;9837;48.888;8.998;2023-04-10T06:59:53;21.50;32.80
19403;DHT22;9837;48.888;8.998;2023-04-10T07:02:19;21.50;33.50
19403;DHT22;9837;48.888;8.998;2023-04-10T07:04:45;20.70;33.90
19403;DHT22;9837;48.888;8.998;2023-04-10T07:07:10;20.60;34.40
19403;DHT22;9837;48.888;8.998;2023-04-10T07:09:38;20.10;34.30
19403;DHT22;9837;48.888;8.998;2023-04-10T07:12:04;19.00;36.00
19403;DHT22;9837;48.888;8.998;2023-04-10T07:14:32;18.90;36.50
19403;DHT22;9837;48.888;8.998;2023-04-10T07:17:07;18.70;36.60
19403;DHT22;9837;48.888;8.998;2023-04-10T07:19:32;18.60;37.20
19403;DHT22;9837;48.888;8.998;2023-04-10T07:21:59;18.60;37.30
19403;DHT22;9837;48.888;8.998;2023-04-10T07:24:24;18.50;37.10
19403;DHT22;9837;48.888;8.998;2023-04-10T07:26:50;19.00;36.30
19403;DHT22;9837;48.888;8.998;2023-04-10T07:29:16;19.00;36.70
19403;DHT22;9837;48.888;8.998;2023-04-10T07:31:41;19.10;37.00
19403;DHT22;9837;48.888;8.998;2023-04-10T07:34:07;19.10;36.90
19403;DHT22;9837;48.888;8.998;2023-04-10T07:36:33;18.80;37.00
19403;DHT22;9837;48.888;8.998;2023-04-10T07:38:58;18.10;37.40
19403;DHT22;9837;48.888;8.998;2023-04-10T07:41:24;18.00;38.00
19403;DHT22;9837;48.888;8.998;2023-04-10T07:43:49;17.50;38.20
19403;DHT22;9837;48.888;8.998;2023-04-10T07:46:16;17.40;39.20
19403;DHT22;9837;48.888;8.998;2023-04-10T07:48:41;17.60;39.20
19403;DHT22;9837;48.888;8.998;2023-04-10T07:51:07;18.00;38.80
19403;DHT22;9837;48.888;8.998;2023-04-10T07:53:37;17.80;38.30
19403;DHT22;9837;48.888;8.998;2023-04-10T07:56:03;17.60;38.60
19403;DHT22;9837;48.888;8.998;2023-04-10T07:58:28;18.20;38.90
19403;DHT22;9837;48.888;8.998;2023-04-10T08:00:55;18.20;39.30
19403;DHT22;9837;48.888;8.998;2023-04-10T08:03:21;18.40;38.50
19403;DHT22;9837;48.888;8.998;2023-04-10T08:05:47;18.40;38.10
19403;DHT22;9837;48.888;8.998;2023-04-10T08:08:14;18.60;39.10
19403;DHT22;9837;48.888;8.998;2023-04-10T08:10:39;19.00;36.50
19403;DHT22;9837;48.888;8.998;2023-04-10T08:13:05;19.40;37.10
19403;DHT22;9837;48.888;8.998;2023-04-10T08:17:56;18.50;37.10
19403;DHT22;9837;48.888;8.998;2023-04-10T08:20:22;18.50;37.70
19403;DHT22;9837;48.888;8.998;2023-04-10T08:22:47;19.40;36.90
19403;DHT22;9837;48.888;8.998;2023-04-10T08:25:13;18.90;35.70
19403;DHT22;9837;48.888;8.998;2023-04-10T08:27:39;18.90;36.30
19403;DHT22;9837;48.888;8.998;2023-04-10T08:30:05;22.50;38.00
19403;DHT22;9837;48.888;8.998;2023-04-10T08:32:31;18.70;36.70
19403;DHT22;9837;48.888;8.998;2023-04-10T08:34:56;18.70;37.20
19403;DHT22;9837;48.888;8.998;2023-04-10T08:37:22;18.90;36.40
19403;DHT22;9837;48.888;8.998;2023-04-10T08:39:47;19.20;35.10
19403;DHT22;9837;48.888;8.998;2023-04-10T08:42:13;19.10;34.90
19403;DHT22;9837;48.888;8.998;2023-04-10T08:44:38;18.30;34.20
19403;DHT22;9837;48.888;8.998;2023-04-10T08:47:06;18.20;35.10
19403;DHT22;9837;48.888;8.998;2023-04-10T08:50:05;18.30;35.80
19403;DHT22;9837;48.888;8.998;2023-04-10T08:52:33;18.10;35.60
19403;DHT22;9837;48.888;8.998;2023-04-10T08:55:01;18.00;36.10
19403;DHT22;9837;48.888;8.998;2023-04-10T08:57:31;18.00;35.70
19403;DHT22;9837;48.888;8.998;2023-04-10T08:59:57;17.50;35.70
19403;DHT22;9837;48.888;8.998;2023-04-10T09:02:23;17.50;36.90
19403;DHT22;9837;48.888;8.998;2023-04-10T09:04:52;18.10;36.50
19403;DHT22;9837;48.888;8.998;2023-04-10T09:07:19;18.40;35.80
19403;DHT22;9837;48.888;8.998;2023-04-10T09:09:45;18.90;35.00
19403;DHT22;9837;48.888;8.998;2023-04-10T09:12:12;18.90;35.70
19403;DHT22;9837;48.888;8.998;2023-04-10T09:14:40;18.90;34.80
19403;DHT22;9837;48.888;8.998;2023-04-10T09:17:18;19.10;34.10
19403;DHT22;9837;48.888;8.998;2023-04-10T09:19:45;18.60;34.40
19403;DHT22;9837;48.888;8.998;2023-04-10T09:22:12;18.60;35.00
19403;DHT22;9837;48.888;8.998;2023-04-10T09:24:39;18.90;34.80
19403;DHT22;9837;48.888;8.998;2023-04-10T09:27:06;19.40;34.70
19403;DHT22;9837;48.888;8.998;2023-04-10T09:29:45;19.60;33.60
19403;DHT22;9837;48.888;8.998;2023-04-10T09:32:23;19.30;32.90
19403;DHT22;9837;48.888;8.998;2023-04-10T09:34:58;19.30;33.40
19403;DHT22;9837;48.888;8.998;2023-04-10T09:37:31;19.00;34.60
19403;DHT22;9837;48.888;8.998;2023-04-10T09:39:56;19.00;34.70
19403;DHT22;9837;48.888;8.998;2023-04-10T09:42:35;19.10;33.60
19403;DHT22;9837;48.888;8.998;2023-04-10T09:45:04;18.60;34.00
19403;DHT22;9837;48.888;8.998;2023-04-10T09:47:30;18.50;33.70
19403;DHT22;9837;48.888;8.998;2023-04-10T09:49:58;18.70;34.00
19403;DHT22;9837;48.888;8.998;2023-04-10T09:52:32;19.00;33.70
19403;DHT22;9837;48.888;8.998;2023-04-10T09:55:02;18.90;34.30
19403;DHT22;9837;48.888;8.998;2023-04-10T09:57:30;19.10;33.90
19403;DHT22;9837;48.888;8.998;2023-04-10T09:59:58;19.30;34.20
19403;DHT22;9837;48.888;8.998;2023-04-10T10:02:27;19.30;33.50
19403;DHT22;9837;48.888;8.998;2023-04-10T10:07:22;18.90;33.20
19403;DHT22;9837;48.888;8.998;2023-04-10T10:09:49;19.50;33.90
19403;DHT22;9837;48.888;8.998;2023-04-10T10:12:34;18.90;32.60
19403;DHT22;9837;48.888;8.998;2023-04-10T10:18:06;19.00;34.00
19403;DHT22;9837;48.888;8.998;2023-04-10T10:20:34;19.00;33.50
19403;DHT22;9837;48.888;8.998;2023-04-10T10:23:05;18.80;33.60
19403;DHT22;9837;48.888;8.998;2023-04-10T10:25:34;18.80;33.30
19403;DHT22;9837;48.888;8.998;2023-04-10T10:28:02;19.00;34.00
19403;DHT22;9837;48.888;8.998;2023-04-10T10:30:31;19.40;32.90
19403;DHT22;9837;48.888;8.998;2023-04-10T10:32:57;19.40;33.80
19403;DHT22;9837;48.888;8.998;2023-04-10T10:35:25;19.90;32.90
19403;DHT22;9837;48.888;8.998;2023-04-10T10:37:51;19.90;31.60
19403;DHT22;9837;48.888;8.998;2023-04-10T10:40:22;19.90;31.80
19403;DHT22;9837;48.888;8.998;2023-04-10T10:43:09;20.10;31.60
19403;DHT22;9837;48.888;8.998;2023-04-10T10:45:39;20.10;32.60
19403;DHT22;9837;48.888;8.998;2023-04-10T10:48:06;20.00;31.80
19403;DHT22;9837;48.888;8.998;2023-04-10T10:50:51;20.00;31.50
19403;DHT22;9837;48.888;8.998;2023-04-10T10:53:37;20.40;31.70
19403;DHT22;9837;48.888;8.998;2023-04-10T10:58:52;20.40;29.90
19403;DHT22;9837;48.888;8.998;2023-04-10T11:01:19;20.70;30.50
19403;DHT22;9837;48.888;8.998;2023-04-10T11:03:46;23.20;31.40
19403;DHT22;9837;48.888;8.998;2023-04-10T11:06:18;21.60;29.10
19403;DHT22;9837;48.888;8.998;2023-04-10T11:08:51;21.70;29.20
19403;DHT22;9837;48.888;8.998;2023-04-10T11:11:21;21.50;29.40
19403;DHT22;9837;48.888;8.998;2023-04-10T11:16:43;21.80;28.70
19403;DHT22;9837;48.888;8.998;2023-04-10T11:19:09;21.80;27.40
19403;DHT22;9837;48.888;8.998;2023-04-10T11:22:13;21.80;27.90
19403;DHT22;9837;48.888;8.998;2023-04-10T11:24:59;21.50;28.10
19403;DHT22;9837;48.888;8.998;2023-04-10T11:27:41;21.70;29.10
19403;DHT22;9837;48.888;8.998;2023-04-10T11:30:35;21.60;28.50
19403;DHT22;9837;48.888;8.998;2023-04-10T11:33:03;21.70;28.90
19403;DHT22;9837;48.888;8.998;2023-04-10T11:35:30;22.50;29.40
19403;DHT22;9837;48.888;8.998;2023-04-10T11:38:13;22.50;27.10
19403;DHT22;9837;48.888;8.998;2023-04-10T11:41:01;22.70;26.90
19403;DHT22;9837;48.888;8.998;2023-04-10T11:43:28;22.80;27.70
19403;DHT22;9837;48.888;8.998;2023-04-10T11:46:07;22.70;26.60
19403;DHT22;9837;48.888;8.998;2023-04-10T11:51:06;22.40;26.30
19403;DHT22;9837;48.888;8.998;2023-04-10T11:53:31;22.30;27.50
19403;DHT22;9837;48.888;8.998;2023-04-10T11:55:57;22.40;26.40
19403;DHT22;9837;48.888;8.998;2023-04-10T11:58:24;22.50;25.00
19403;DHT22;9837;48.888;8.998;2023-04-10T12:01:01;22.40;25.20
19403;DHT22;9837;48.888;8.998;2023-04-10T12:03:45;22.40;25.80
19403;DHT22;9837;48.888;8.998;2023-04-10T12:06:12;22.40;24.70
19403;DHT22;9837;48.888;8.998;2023-04-10T12:08:41;22.50;26.20
19403;DHT22;9837;48.888;8.998;2023-04-10T12:11:08;22.30;25.00
19403;DHT22;9837;48.888;8.998;2023-04-10T12:13:34;22.30;25.60
19403;DHT22;9837;48.888;8.998;2023-04-10T12:16:02;22.60;26.30
19403;DHT22;9837;48.888;8.998;2023-04-10T12:18:28;22.80;24.70
19403;DHT22;9837;48.888;8.998;2023-04-10T12:20:55;22.90;24.90
19403;DHT22;9837;48.888;8.998;2023-04-10T12:23:22;24.90;25.30
19403;DHT22;9837;48.888;8.998;2023-04-10T12:25:48;22.20;24.50
19403;DHT22;9837;48.888;8.998;2023-04-10T12:28:21;22.00;25.80
19403;DHT22;9837;48.888;8.998;2023-04-10T12:30:51;22.20;26.30
19403;DHT22;9837;48.888;8.998;2023-04-10T12:33:23;21.90;25.10
19403;DHT22;9837;48.888;8.998;2023-04-10T12:35:50;21.80;26.40
19403;DHT22;9837;48.888;8.998;2023-04-10T12:38:39;22.40;24.20
19403;DHT22;9837;48.888;8.998;2023-04-10T12:41:06;22.40;24.40
19403;DHT22;9837;48.888;8.998;2023-04-10T12:43:39;22.50;25.50
19403;DHT22;9837;48.888;8.998;2023-04-10T12:46:07;22.70;26.20
19403;DHT22;9837;48.888;8.998;2023-04-10T12:48:33;22.80;25.50
19403;DHT22;9837;48.888;8.998;2023-04-10T12:50:59;22.80;26.50
19403;DHT22;9837;48.888;8.998;2023-04-10T12:53:25;23.40;24.00
19403;DHT22;9837;48.888;8.998;2023-04-10T12:56:02;22.90;24.20
19403;DHT22;9837;48.888;8.998;2023-04-10T12:58:29;23.10;23.10
19403;DHT22;9837;48.888;8.998;2023-04-10T13:01:03;23.30;23.20
19403;DHT22;9837;48.888;8.998;2023-04-10T13:03:29;23.00;22.50
19403;DHT22;9837;48.888;8.998;2023-04-10T13:05:55;23.30;24.60
19403;DHT22;9837;48.888;8.998;2023-04-10T13:08:21;23.60;24.10
19403;DHT22;9837;48.888;8.998;2023-04-10T13:10:47;23.60;24.30
19403;DHT22;9837;48.888;8.998;2023-04-10T13:13:14;23.60;23.60
19403;DHT22;9837;48.888;8.998;2023-04-10T13:15:40;23.30;23.30
19403;DHT22;9837;48.888;8.998;2023-04-10T13:18:06;23.70;23.10
19403;DHT22;9837;48.888;8.998;2023-04-10T13:20:33;23.30;23.20
19403;DHT22;9837;48.888;8.998;2023-04-10T13:22:59;24.90;24.20
19403;DHT22;9837;48.888;8.998;2023-04-10T13:25:27;23.70;22.60
19403;DHT22;9837;48.888;8.998;2023-04-10T13:27:52;24.10;22.00
19403;DHT22;9837;48.888;8.998;2023-04-10T13:30:18;24.10;22.40
19403;DHT22;9837;48.888;8.998;2023-04-10T13:35:10;24.30;22.10
19403;DHT22;9837;48.888;8.998;2023-04-10T13:37:39;24.40;22.70
19403;DHT22;9837;48.888;8.998;2023-04-10T13:40:15;23.70;22.70
19403;DHT22;9837;48.888;8.998;2023-04-10T13:42:53;24.20;23.40
19403;DHT22;9837;48.888;8.998;2023-04-10T13:49:10;24.60;22.80
19403;DHT22;9837;48.888;8.998;2023-04-10T13:52:33;24.60;23.30
19403;DHT22;9837;48.888;8.998;2023-04-10T13:55:14;24.60;22.90
19403;DHT22;9837;48.888;8.998;2023-04-10T13:58:06;24.70;22.50
19403;DHT22;9837;48.888;8.998;2023-04-10T14:01:02;25.10;22.10
19403;DHT22;9837;48.888;8.998;2023-04-10T14:09:41;24.20;23.70
19403;DHT22;9837;48.888;8.998;2023-04-10T14:12:14;24.50;23.00
19403;DHT22;9837;48.888;8.998;2023-04-10T14:17:55;25.10;22.70
19403;DHT22;9837;48.888;8.998;2023-04-10T14:25:17;24.40;22.60
19403;DHT22;9837;48.888;8.998;2023-04-10T14:30:28;24.40;22.50
19403;DHT22;9837;48.888;8.998;2023-04-10T14:33:08;24.90;23.50
19403;DHT22;9837;48.888;8.998;2023-04-10T14:38:36;21.40;22.00
19403;DHT22;9837;48.888;8.998;2023-04-10T14:41:08;25.40;22.40
19403;DHT22;9837;48.888;8.998;2023-04-10T14:43:40;25.10;22.70
19403;DHT22;9837;48.888;8.998;2023-04-10T14:52:19;22.10;25.00
19403;DHT22;9837;48.888;8.998;2023-04-10T15:02:13;22.70;23.90
19403;DHT22;9837;48.888;8.998;2023-04-10T15:07:46;22.80;24.00
19403;DHT22;9837;48.888;8.998;2023-04-10T15:11:02;22.90;23.70
19403;DHT22;9837;48.888;8.998;2023-04-10T15:16:06;22.40;22.90
19403;DHT22;9837;48.888;8.998;2023-04-10T15:22:05;23.10;23.80
19403;DHT22;9837;48.888;8.998;2023-04-10T15:24:52;23.00;23.60
19403;DHT22;9837;48.888;8.998;2023-04-10T15:30:43;23.10;24.00
19403;DHT22;9837;48.888;8.998;2023-04-10T15:33:48;23.10;24.10
19403;DHT22;9837;48.888;8.998;2023-04-10T15:38:58;23.30;23.70
19403;DHT22;9837;48.888;8.998;2023-04-10T15:41:45;22.80;24.20
19403;DHT22;9837;48.888;8.998;2023-04-10T15:44:50;22.90;24.20
19403;DHT22;9837;48.888;8.998;2023-04-10T15:47:53;22.80;24.70
19403;DHT22;9837;48.888;8.998;2023-04-10T15:54:02;22.70;25.40
19403;DHT22;9837;48.888;8.998;2023-04-10T15:56:50;22.40;24.80
19403;DHT22;9837;48.888;8.998;2023-04-10T16:02:08;22.30;24.90
19403;DHT22;9837;48.888;8.998;2023-04-10T16:04:47;22.10;25.10
19403;DHT22;9837;48.888;8.998;2023-04-10T16:37:49;21.70;25.40
19403;DHT22;9837;48.888;8.998;2023-04-10T16:41:16;21.70;25.60
19403;DHT22;9837;48.888;8.998;2023-04-10T16:44:28;21.60;25.90
19403;DHT22;9837;48.888;8.998;2023-04-10T16:47:53;21.20;26.20
19403;DHT22;9837;48.888;8.998;2023-04-10T16:53:03;21.10;26.50
19403;DHT22;9837;48.888;8.998;2023-04-10T18:50:51;19.50;32.80
19403;DHT22;9837;48.888;8.998;2023-04-10T18:58:40;19.70;32.50
19403;DHT22;9837;48.888;8.998;2023-04-10T19:38:07;20.10;33.90
19403;DHT22;9837;48.888;8.998;2023-04-10T19:40:37;20.20;34.10
19403;DHT22;9837;48.888;8.998;2023-04-10T19:45:43;20.00;34.40
19403;DHT22;9837;48.888;8.998;2023-04-10T19:58:29;19.80;35.00
